createdAt,value
2019-05-25T00:01:35.767Z,3.90
2019-05-25T00:04:04.541Z,2.87
2019-05-25T00:06:32.972Z,2.50
2019-05-25T00:09:01.430Z,1.60
2019-05-25T00:11:29.877Z,2.40
2019-05-25T00:13:58.432Z,1.70
2019-05-25T00:16:26.868Z,2.10
2019-05-25T00:18:55.465Z,1.70
2019-05-25T00:21:23.990Z,4.63
2019-05-25T00:23:52.431Z,2.57
2019-05-25T00:26:20.967Z,2.60
2019-05-25T00:28:49.461Z,2.23
2019-05-25T00:31:17.959Z,1.50
2019-05-25T00:33:46.400Z,1.70
2019-05-25T00:36:14.854Z,2.67
2019-05-25T00:38:43.497Z,1.97
2019-05-25T00:41:12.006Z,2.90
2019-05-25T00:43:40.454Z,4.13
2019-05-25T00:46:08.896Z,4.13
2019-05-25T00:48:37.353Z,3.33
2019-05-25T00:51:25.153Z,3.40
2019-05-25T00:53:53.666Z,1.40
2019-05-25T00:56:27.908Z,3.73
2019-05-25T00:58:56.418Z,1.63
2019-05-25T01:01:24.946Z,2.23
2019-05-25T01:03:53.391Z,2.30
2019-05-25T01:06:22.004Z,2.83
2019-05-25T01:08:50.466Z,2.57
2019-05-25T01:11:18.907Z,5.90
2019-05-25T01:13:47.364Z,1.77
2019-05-25T01:16:15.795Z,2.07
2019-05-25T01:18:44.238Z,1.80
2019-05-25T01:21:12.694Z,5.93
2019-05-25T01:23:41.127Z,2.23
2019-05-25T01:26:09.672Z,2.43
2019-05-25T01:28:38.112Z,1.77
2019-05-25T01:31:06.828Z,2.43
2019-05-25T01:33:35.270Z,2.93
2019-05-25T01:36:03.730Z,2.47
2019-05-25T01:38:32.216Z,1.90
2019-05-25T01:41:20.019Z,4.37
2019-05-25T01:43:48.473Z,4.30
2019-05-25T01:46:16.943Z,2.90
2019-05-25T01:48:45.438Z,5.47
2019-05-25T01:51:13.888Z,2.70
2019-05-25T01:53:42.333Z,2.20
2019-05-25T01:56:22.898Z,4.53
2019-05-25T01:58:51.326Z,3.60
2019-05-25T02:01:19.790Z,2.00
2019-05-25T02:03:48.306Z,2.70
2019-05-25T02:06:36.097Z,3.90
2019-05-25T02:09:07.096Z,4.80
2019-05-25T02:11:36.539Z,2.50
2019-05-25T02:14:24.324Z,3.70
2019-05-25T02:16:52.796Z,2.33
2019-05-25T02:19:21.768Z,2.27
2019-05-25T02:21:50.406Z,3.00
2019-05-25T02:24:18.915Z,2.53
2019-05-25T02:26:47.458Z,4.60
2019-05-25T02:29:15.928Z,2.50
2019-05-25T02:32:03.785Z,3.93
2019-05-25T02:34:32.388Z,2.80
2019-05-25T02:37:00.824Z,3.40
2019-05-25T02:39:29.291Z,2.70
2019-05-25T02:41:57.718Z,3.20
2019-05-25T02:44:34.004Z,3.50
2019-05-25T02:47:02.527Z,2.80
2019-05-25T02:49:50.325Z,5.90
2019-05-25T02:52:18.767Z,5.70
2019-05-25T02:54:48.210Z,3.57
2019-05-25T02:57:16.714Z,3.53
2019-05-25T02:59:45.155Z,3.43
2019-05-25T03:02:33.021Z,3.30
2019-05-25T03:05:01.646Z,3.60
2019-05-25T03:07:31.013Z,4.30
2019-05-25T03:10:00.897Z,3.03
2019-05-25T03:12:30.599Z,3.30
2019-05-25T03:14:59.058Z,2.93
2019-05-25T03:17:27.589Z,3.20
2019-05-25T03:19:56.035Z,4.00
2019-05-25T03:22:24.683Z,3.53
2019-05-25T03:24:53.211Z,4.70
2019-05-25T03:27:21.677Z,3.57
2019-05-25T03:29:51.098Z,5.80
2019-05-25T03:32:19.811Z,3.30
2019-05-25T03:34:48.260Z,3.80
2019-05-25T03:37:16.819Z,3.27
2019-05-25T03:39:45.292Z,3.60
2019-05-25T03:42:13.760Z,3.40
2019-05-25T03:44:42.191Z,8.87
2019-05-25T03:47:10.660Z,4.87
2019-05-25T03:49:58.432Z,4.70
2019-05-25T03:52:26.902Z,4.37
2019-05-25T03:54:55.473Z,4.87
2019-05-25T03:57:23.975Z,4.77
2019-05-25T03:59:52.488Z,5.40
2019-05-25T04:02:21.004Z,5.80
2019-05-25T04:04:50.440Z,5.50
2019-05-25T04:07:18.871Z,6.97
2019-05-25T04:09:47.329Z,4.70
2019-05-25T04:12:15.772Z,6.03
2019-05-25T04:14:44.228Z,6.93
2019-05-25T04:17:12.728Z,6.03
2019-05-25T04:19:41.175Z,7.30
2019-05-25T04:22:09.627Z,7.60
2019-05-25T04:24:38.152Z,10.20
2019-05-25T04:27:15.559Z,6.23
2019-05-25T04:29:44.103Z,6.10
2019-05-25T04:32:12.553Z,7.13
2019-05-25T04:34:40.999Z,6.00
2019-05-25T04:37:09.463Z,6.63
2019-05-25T04:39:37.919Z,8.20
2019-05-25T04:42:06.518Z,6.43
2019-05-25T04:44:34.947Z,7.97
2019-05-25T04:47:03.404Z,8.63
2019-05-25T04:49:31.841Z,7.83
2019-05-25T04:52:00.290Z,6.97
2019-05-25T04:54:28.733Z,7.87
2019-05-25T04:56:57.197Z,8.07
2019-05-25T04:59:25.644Z,9.27
2019-05-25T05:01:54.088Z,7.60
2019-05-25T05:04:23.520Z,8.17
2019-05-25T05:06:51.966Z,7.90
2019-05-25T05:09:20.492Z,9.00
2019-05-25T05:11:48.935Z,10.70
2019-05-25T05:14:18.368Z,9.33
2019-05-25T05:16:46.804Z,8.07
2019-05-25T05:19:15.255Z,9.00
2019-05-25T05:21:43.695Z,13.37
2019-05-25T05:24:12.308Z,9.13
2019-05-25T05:26:54.537Z,12.87
2019-05-25T05:29:11.268Z,8.47
2019-05-25T05:31:40.052Z,10.40
2019-05-25T05:34:08.734Z,10.77
2019-05-25T05:36:37.499Z,10.50
2019-05-25T05:39:08.235Z,10.57
2019-05-25T05:41:40.113Z,10.10
2019-05-25T05:44:08.824Z,8.50
2019-05-25T05:46:41.510Z,13.83
2019-05-25T05:49:10.765Z,10.23
2019-05-25T05:52:00.216Z,9.80
2019-05-25T05:54:30.033Z,9.93
2019-05-25T05:57:11.830Z,12.20
2019-05-25T05:59:28.999Z,14.27
2019-05-25T06:01:57.603Z,12.30
2019-05-25T06:04:26.193Z,11.23
2019-05-25T06:06:54.966Z,11.43
2019-05-25T06:09:23.513Z,9.33
2019-05-25T06:11:52.313Z,12.73
2019-05-25T06:14:21.030Z,9.60
2019-05-25T06:16:49.488Z,10.27
2019-05-25T06:19:37.370Z,10.57
2019-05-25T06:22:06.086Z,12.23
2019-05-25T06:24:34.655Z,9.63
2019-05-25T06:27:03.358Z,15.97
2019-05-25T06:29:32.021Z,11.17
2019-05-25T06:32:02.314Z,13.67
2019-05-25T06:34:33.672Z,12.40
2019-05-25T06:37:02.189Z,14.60
2019-05-25T06:39:30.707Z,12.83
2019-05-25T06:42:18.521Z,15.43
2019-05-25T06:44:46.980Z,8.07
2019-05-25T06:47:15.411Z,8.63
2019-05-25T06:49:43.920Z,12.40
2019-05-25T06:52:31.713Z,10.27
2019-05-25T06:55:00.184Z,10.97
2019-05-25T06:57:41.983Z,10.37
2019-05-25T06:59:58.852Z,10.03
2019-05-25T07:02:27.292Z,13.23
2019-05-25T07:04:55.852Z,10.13
2019-05-25T07:07:24.442Z,10.20
2019-05-25T07:09:52.970Z,8.43
2019-05-25T07:12:21.479Z,10.10
2019-05-25T07:14:50.277Z,14.03
2019-05-25T07:17:18.874Z,9.80
2019-05-25T07:19:47.315Z,10.00
2019-05-25T07:22:15.848Z,10.20
2019-05-25T07:24:44.283Z,9.00
2019-05-25T07:27:13.515Z,10.40
2019-05-25T07:29:42.053Z,17.20
2019-05-25T07:32:10.639Z,12.27
2019-05-25T07:34:39.083Z,11.97
2019-05-25T07:37:07.585Z,19.27
2019-05-25T07:39:36.191Z,18.70
2019-05-25T07:42:04.760Z,15.60
2019-05-25T07:44:52.825Z,20.90
2019-05-25T07:47:21.299Z,21.27
2019-05-25T07:49:49.744Z,31.03
2019-05-25T07:52:18.264Z,37.70
2019-05-25T07:54:46.725Z,23.40
2019-05-25T07:57:15.177Z,19.67
2019-05-25T07:59:43.662Z,22.47
2019-05-25T08:02:12.191Z,18.10
2019-05-25T08:04:40.649Z,20.77
2019-05-25T08:07:09.153Z,18.90
2019-05-25T08:09:38.667Z,29.23
2019-05-25T08:12:07.175Z,19.30
2019-05-25T08:14:35.641Z,19.43
2019-05-25T08:17:04.167Z,20.23
2019-05-25T08:19:32.804Z,18.50
2019-05-25T08:22:20.588Z,21.60
2019-05-25T08:24:49.067Z,23.27
2019-05-25T08:27:17.515Z,16.50
2019-05-25T08:29:45.996Z,19.10
2019-05-25T08:32:14.449Z,15.07
2019-05-25T08:34:42.903Z,15.10
2019-05-25T08:37:11.368Z,15.03
2019-05-25T08:39:39.832Z,13.63
2019-05-25T08:42:08.272Z,13.03
2019-05-25T08:44:56.124Z,9.20
2019-05-25T08:47:24.632Z,9.97
2019-05-25T08:49:54.091Z,9.40
2019-05-25T08:52:22.555Z,21.67
2019-05-25T08:54:50.996Z,12.37
2019-05-25T08:57:19.467Z,10.50
2019-05-25T08:59:47.931Z,33.23
2019-05-25T09:02:16.391Z,9.73
2019-05-25T09:04:44.897Z,20.07
2019-05-25T09:07:13.358Z,11.47
2019-05-25T09:10:01.137Z,16.80
2019-05-25T09:12:29.712Z,13.60
2019-05-25T09:14:58.172Z,18.03
2019-05-25T09:17:26.629Z,12.33
2019-05-25T09:19:55.068Z,17.57
2019-05-25T09:22:23.532Z,10.90
2019-05-25T09:24:52.000Z,14.57
2019-05-25T09:27:20.488Z,11.30
2019-05-25T09:29:48.929Z,10.17
2019-05-25T09:32:17.388Z,10.53
2019-05-25T09:34:45.971Z,10.20
2019-05-25T09:37:14.531Z,9.93
2019-05-25T09:39:42.981Z,11.73
2019-05-25T09:42:11.432Z,12.83
2019-05-25T09:44:39.890Z,10.37
2019-05-25T09:47:08.472Z,16.03
2019-05-25T09:49:37.002Z,64.47
2019-05-25T09:52:05.539Z,11.53
2019-05-25T09:54:34.056Z,11.70
2019-05-25T09:57:02.597Z,11.63
2019-05-25T09:59:31.246Z,11.80
2019-05-25T10:01:59.704Z,11.43
2019-05-25T10:04:29.380Z,12.27
2019-05-25T10:06:57.818Z,15.27
2019-05-25T10:09:45.639Z,27.60
2019-05-25T10:12:16.112Z,15.37
2019-05-25T10:14:44.358Z,14.00
2019-05-25T10:17:12.799Z,17.03
2019-05-25T10:19:41.382Z,12.60
2019-05-25T10:22:10.268Z,32.27
2019-05-25T10:24:38.725Z,23.53
2019-05-25T10:27:07.252Z,14.67
2019-05-25T10:29:37.516Z,20.80
2019-05-25T10:32:05.965Z,22.70
2019-05-25T10:34:34.606Z,14.87
2019-05-25T10:37:03.119Z,25.43
2019-05-25T10:39:50.917Z,17.90
2019-05-25T10:42:19.504Z,24.63
2019-05-25T10:44:48.120Z,19.73
2019-05-25T10:47:16.579Z,23.90
2019-05-25T10:49:45.025Z,17.10
2019-05-25T10:52:13.487Z,16.07
2019-05-25T10:54:41.938Z,16.87
2019-05-25T10:57:13.232Z,18.17
2019-05-25T10:59:52.647Z,17.80
2019-05-25T11:02:10.886Z,16.67
2019-05-25T11:04:39.327Z,17.60
2019-05-25T11:07:07.799Z,23.50
2019-05-25T11:09:36.316Z,18.67
2019-05-25T11:12:04.844Z,17.87
2019-05-25T11:14:33.309Z,18.53
2019-05-25T11:17:02.881Z,21.00
2019-05-25T11:19:31.336Z,24.30
2019-05-25T11:22:19.230Z,18.10
2019-05-25T11:24:47.688Z,33.53
2019-05-25T11:27:16.137Z,21.43
2019-05-25T11:29:44.597Z,17.97
2019-05-25T11:32:13.055Z,23.57
2019-05-25T11:34:41.601Z,18.67
2019-05-25T11:37:10.048Z,18.90
2019-05-25T11:39:38.528Z,20.73
2019-05-25T11:42:06.992Z,17.50
2019-05-25T11:44:35.454Z,18.33
2019-05-25T11:47:05.126Z,19.00
2019-05-25T11:49:33.606Z,22.67
2019-05-25T11:52:02.111Z,17.50
2019-05-25T11:54:30.584Z,16.43
2019-05-25T11:56:59.047Z,16.47
2019-05-25T11:59:27.599Z,16.57
2019-05-25T12:01:56.075Z,15.60
2019-05-25T12:04:24.534Z,17.60
2019-05-25T12:06:53.056Z,18.73
2019-05-25T12:09:21.497Z,16.67
2019-05-25T12:11:49.959Z,15.80
2019-05-25T12:14:18.420Z,14.80
2019-05-25T12:16:46.893Z,18.47
2019-05-25T12:19:15.351Z,14.70
2019-05-25T12:21:43.910Z,13.30
2019-05-25T12:24:12.416Z,13.37
2019-05-25T12:26:40.872Z,14.33
2019-05-25T12:29:09.321Z,13.97
2019-05-25T12:31:37.852Z,12.97
2019-05-25T12:34:06.422Z,11.83
2019-05-25T12:36:34.891Z,12.03
2019-05-25T12:39:04.822Z,10.77
2019-05-25T12:41:33.334Z,11.27
2019-05-25T12:44:01.868Z,13.37
2019-05-25T12:46:30.337Z,11.63
2019-05-25T12:48:58.883Z,11.03
2019-05-25T12:51:27.331Z,11.63
2019-05-25T12:53:55.814Z,11.87
2019-05-25T12:56:24.265Z,10.23
2019-05-25T12:58:52.729Z,9.33
2019-05-25T13:01:21.241Z,9.10
2019-05-25T13:03:49.687Z,8.77
2019-05-25T13:06:19.152Z,8.57
2019-05-25T13:08:47.608Z,9.30
2019-05-25T13:11:16.098Z,9.50
2019-05-25T13:13:44.607Z,9.00
2019-05-25T13:16:13.162Z,8.93
2019-05-25T13:18:42.144Z,7.60
2019-05-25T13:21:10.600Z,12.00
2019-05-25T13:23:39.045Z,8.70
2019-05-25T13:26:07.479Z,7.40
2019-05-25T13:28:55.275Z,8.20
2019-05-25T13:31:24.367Z,10.03
2019-05-25T13:33:52.805Z,5.57
2019-05-25T13:36:21.266Z,7.13
2019-05-25T13:38:49.788Z,6.50
2019-05-25T13:41:18.248Z,5.70
2019-05-25T13:44:06.046Z,8.20
2019-05-25T13:46:34.534Z,6.80
2019-05-25T13:49:02.978Z,5.43
2019-05-25T13:51:31.492Z,6.67
2019-05-25T13:53:59.955Z,8.70
2019-05-25T13:56:28.404Z,3.70
2019-05-25T13:58:56.931Z,12.90
2019-05-25T14:01:28.327Z,27.27
2019-05-25T14:03:55.933Z,6.13
2019-05-25T14:06:24.484Z,17.37
2019-05-25T14:08:52.935Z,6.20
2019-05-25T14:11:21.464Z,5.23
2019-05-25T14:13:49.920Z,3.70
2019-05-25T14:16:18.364Z,7.27
2019-05-25T14:18:46.847Z,5.53
2019-05-25T14:21:15.284Z,6.40
2019-05-25T14:23:47.539Z,7.33
2019-05-25T14:26:16.005Z,7.03
2019-05-25T14:28:44.443Z,8.77
2019-05-25T14:31:12.945Z,11.47
2019-05-25T14:33:41.444Z,6.13
2019-05-25T14:36:09.905Z,5.47
2019-05-25T14:38:38.420Z,4.23
2019-05-25T14:41:06.865Z,4.00
2019-05-25T14:43:35.319Z,4.00
2019-05-25T14:46:03.773Z,11.77
2019-05-25T14:48:32.315Z,4.93
2019-05-25T14:51:00.768Z,4.77
2019-05-25T14:53:29.299Z,4.10
2019-05-25T14:55:57.760Z,4.83
2019-05-25T14:58:26.284Z,4.97
2019-05-25T15:00:54.719Z,4.80
2019-05-25T15:03:23.172Z,4.93
2019-05-25T15:05:51.618Z,4.20
2019-05-25T15:08:20.082Z,4.67
2019-05-25T15:10:48.585Z,3.80
2019-05-25T15:13:17.034Z,4.90
2019-05-25T15:15:45.642Z,4.77
2019-05-25T15:18:14.094Z,4.13
2019-05-25T15:20:43.109Z,4.40
2019-05-25T15:23:11.556Z,3.70
2019-05-25T15:25:40.008Z,3.90
2019-05-25T15:28:08.480Z,3.67
2019-05-25T15:30:36.991Z,3.90
2019-05-25T15:33:05.526Z,6.07
2019-05-25T15:35:34.055Z,5.13
2019-05-25T15:38:02.584Z,6.70
2019-05-25T15:40:31.021Z,3.87
2019-05-25T15:42:59.647Z,4.33
2019-05-25T15:45:28.112Z,4.20
2019-05-25T15:47:56.618Z,3.67
2019-05-25T15:50:26.780Z,5.70
2019-05-25T15:52:56.707Z,4.80
2019-05-25T15:55:25.588Z,3.77
2019-05-25T15:57:54.028Z,3.93
2019-05-25T16:00:25.580Z,5.20
2019-05-25T16:02:54.112Z,3.00
2019-05-25T16:05:22.684Z,3.27
2019-05-25T16:07:52.676Z,3.50
2019-05-25T16:10:40.487Z,4.80
2019-05-25T16:13:08.919Z,3.40
2019-05-25T16:15:37.538Z,3.63
2019-05-25T16:18:06.057Z,4.30
2019-05-25T16:20:34.587Z,8.23
2019-05-25T16:23:03.031Z,3.60
2019-05-25T16:25:31.652Z,3.53
2019-05-25T16:28:00.110Z,5.10
2019-05-25T16:30:31.365Z,3.40
2019-05-25T16:33:14.998Z,3.13
2019-05-25T16:35:29.227Z,4.93
2019-05-25T16:37:57.911Z,4.67
2019-05-25T16:40:27.610Z,4.13
2019-05-25T16:42:56.399Z,5.83
2019-05-25T16:45:24.888Z,3.60
2019-05-25T16:47:53.483Z,5.00
2019-05-25T16:50:22.695Z,4.10
2019-05-25T16:53:10.532Z,3.93
2019-05-25T16:55:39.231Z,4.50
2019-05-25T16:58:07.994Z,3.43
2019-05-25T17:00:36.571Z,5.77
2019-05-25T17:03:05.111Z,3.83
2019-05-25T17:05:33.561Z,4.60
2019-05-25T17:08:02.014Z,9.03
2019-05-25T17:10:30.524Z,3.90
2019-05-25T17:12:59.078Z,6.43
2019-05-25T17:15:27.593Z,6.13
2019-05-25T17:17:56.127Z,6.43
2019-05-25T17:20:24.779Z,4.67
2019-05-25T17:22:53.223Z,4.77
2019-05-25T17:25:21.948Z,9.33
2019-05-25T17:27:50.454Z,5.63
2019-05-25T17:30:21.996Z,6.20
2019-05-25T17:32:50.636Z,3.77
2019-05-25T17:35:19.384Z,7.17
2019-05-25T17:37:47.924Z,7.23
2019-05-25T17:40:16.507Z,12.27
2019-05-25T17:42:44.962Z,9.83
2019-05-25T17:45:13.945Z,18.73
2019-05-25T17:47:42.400Z,15.93
2019-05-25T17:50:11.032Z,16.60
2019-05-25T17:52:39.580Z,4.10
2019-05-25T17:55:08.707Z,15.57
2019-05-25T17:57:37.204Z,4.43
2019-05-25T18:00:07.387Z,5.40
2019-05-25T18:02:35.900Z,25.17
2019-05-25T18:05:06.696Z,3.97
2019-05-25T18:07:35.447Z,5.87
2019-05-25T18:10:06.898Z,5.30
2019-05-25T18:12:54.705Z,7.87
2019-05-25T18:15:23.336Z,6.23
2019-05-25T18:17:51.817Z,4.60
2019-05-25T18:20:20.564Z,5.70
2019-05-25T18:22:49.814Z,5.43
2019-05-25T18:25:18.883Z,3.57
2019-05-25T18:27:47.512Z,14.00
2019-05-25T18:30:16.712Z,12.57
2019-05-25T18:32:45.233Z,5.17
2019-05-25T18:35:13.780Z,5.77
2019-05-25T18:37:42.312Z,4.50
2019-05-25T18:40:11.008Z,4.83
2019-05-25T18:42:39.485Z,6.50
2019-05-25T18:45:09.170Z,4.60
2019-05-25T18:47:38.701Z,4.27
2019-05-25T18:50:09.265Z,6.30
2019-05-25T18:52:37.912Z,17.40
2019-05-25T18:55:07.831Z,5.20
2019-05-25T18:57:36.355Z,30.47
2019-05-25T19:00:07.312Z,29.37
2019-05-25T19:02:35.854Z,11.60
2019-05-25T19:05:05.627Z,10.23
2019-05-25T19:07:34.086Z,15.87
2019-05-25T19:10:03.010Z,6.10
2019-05-25T19:12:31.465Z,11.57
2019-05-25T19:14:59.922Z,22.40
2019-05-25T19:17:28.391Z,3.40
2019-05-25T19:19:56.859Z,4.17
2019-05-25T19:22:25.311Z,32.37
2019-05-25T19:24:54.808Z,6.07
2019-05-25T19:27:24.304Z,5.40
2019-05-25T19:29:52.757Z,3.47
2019-05-25T19:32:21.292Z,2.93
2019-05-25T19:34:59.002Z,3.33
2019-05-25T19:37:19.984Z,5.97
2019-05-25T19:39:48.503Z,3.90
2019-05-25T19:42:16.972Z,4.30
2019-05-25T19:44:45.407Z,5.97
2019-05-25T19:47:13.961Z,3.60
2019-05-25T19:49:42.436Z,8.83
2019-05-25T19:52:10.900Z,4.77
2019-05-25T19:54:39.339Z,8.67
2019-05-25T19:57:07.868Z,5.03
2019-05-25T20:22:58.858Z,5.70
2019-05-25T20:25:27.348Z,5.03
2019-05-25T20:27:55.876Z,5.13
2019-05-25T20:30:24.410Z,12.80
2019-05-25T20:32:52.940Z,5.43
2019-05-25T20:35:32.265Z,3.17
2019-05-25T20:37:51.557Z,3.77
2019-05-25T20:40:20.089Z,3.33
2019-05-25T20:43:07.881Z,4.20
2019-05-25T20:45:36.331Z,5.80
2019-05-25T20:48:05.042Z,3.43
2019-05-25T20:50:33.591Z,4.40
2019-05-25T20:53:02.024Z,4.80
2019-05-25T20:55:30.485Z,6.10
2019-05-25T20:57:58.925Z,5.13
2019-05-25T21:00:27.541Z,6.23
2019-05-25T21:03:05.847Z,4.77
2019-05-25T21:05:26.147Z,4.53
2019-05-25T21:07:54.620Z,25.63
2019-05-25T21:10:23.209Z,5.30
2019-05-25T21:12:51.671Z,23.57
2019-05-25T21:15:20.187Z,5.67
2019-05-25T21:17:48.685Z,5.80
2019-05-25T21:20:17.920Z,5.97
2019-05-25T21:23:05.709Z,5.90
2019-05-25T21:25:34.153Z,6.20
2019-05-25T21:28:02.616Z,5.60
2019-05-25T21:30:31.130Z,5.63
2019-05-25T21:32:59.593Z,7.03
2019-05-25T21:35:28.029Z,9.13
2019-05-25T21:37:56.477Z,5.20
2019-05-25T21:40:24.921Z,5.87
2019-05-25T21:42:53.380Z,17.03
2019-05-25T21:45:22.056Z,4.50
2019-05-25T21:47:50.516Z,13.53
2019-05-25T21:50:19.411Z,4.80
2019-05-25T21:52:47.944Z,4.67
2019-05-25T21:55:16.543Z,4.50
2019-05-25T21:57:45.021Z,4.07
2019-05-25T22:00:15.732Z,4.60
2019-05-25T22:02:44.465Z,5.10
2019-05-25T22:05:13.152Z,5.03
2019-05-25T22:07:41.728Z,4.83
2019-05-25T22:10:10.732Z,19.87
2019-05-25T22:12:40.346Z,6.77
2019-05-25T22:15:10.411Z,7.53
2019-05-25T22:17:39.559Z,7.77
2019-05-25T22:20:09.732Z,9.50
2019-05-25T22:22:38.237Z,11.17
2019-05-25T22:25:07.129Z,24.47
2019-05-25T22:27:35.820Z,11.13
2019-05-25T22:30:06.537Z,6.93
2019-05-25T22:32:35.017Z,7.37
2019-05-25T22:35:04.493Z,7.43
2019-05-25T22:37:32.952Z,5.57
2019-05-25T22:40:01.381Z,7.40
2019-05-25T22:42:30.141Z,6.00
2019-05-25T22:44:58.940Z,6.23
2019-05-25T22:47:27.453Z,6.20
2019-05-25T22:49:55.910Z,6.13
2019-05-25T22:52:24.511Z,8.90
2019-05-25T22:54:52.942Z,5.87
2019-05-25T22:57:21.409Z,9.77
2019-05-25T22:59:49.853Z,6.40
2019-05-25T23:02:18.375Z,5.13
2019-05-25T23:04:46.812Z,11.03
2019-05-25T23:07:15.298Z,7.87
2019-05-25T23:09:43.870Z,5.47
2019-05-25T23:12:12.375Z,15.57
2019-05-25T23:14:40.918Z,6.00
2019-05-25T23:17:09.478Z,7.60
2019-05-25T23:19:37.938Z,6.27
2019-05-25T23:22:06.441Z,7.23
2019-05-25T23:24:34.891Z,8.57
2019-05-25T23:27:03.401Z,6.07
2019-05-25T23:29:31.851Z,12.40
2019-05-25T23:32:00.289Z,7.73
2019-05-25T23:34:28.751Z,5.80
2019-05-25T23:37:11.690Z,7.13
2019-05-25T23:39:27.439Z,16.63
2019-05-25T23:41:56.861Z,14.93
2019-05-25T23:44:25.323Z,12.20
2019-05-25T23:46:53.820Z,8.10
2019-05-25T23:49:22.262Z,8.63
2019-05-25T23:51:50.715Z,7.70
2019-05-25T23:54:20.088Z,10.73
2019-05-25T23:56:48.536Z,8.40
2019-05-25T23:59:16.974Z,16.07
